Rose Hill, Texas
Current Conditions -  °F | °C
As of 1:53 PM on Monday 26 Jan 2015 (Local Time) from KDWH Reporting Station
Clear Clear  
Wind Chill: 18°   Ceiling: Unl
Heat Index: 18°   Visibility: 10mi
Dew Point:   Wind: 9mph
Humidity: 34%   Direction: 250°WSW
Pressure: 30.18"   Gusts: NA
Location:  30.0721°N, 95.6453°W
Report Text: KDWH 261953Z 25008KT 10SM CLR 18/02 A3018 RMK AO2 SLP218 T01780017
Loading
Personal Weather Stations






























Interactive Weather Map New forecast layout! Learn more

10-Day Weather Forecast

Advertisements
Track Severe Weather on mobile